Time;durP1;ratioP1;P1;durP2;ratioP2;P2;SDS_P1;SDS_P2;PMS_P1;PMS_P2;Temp;Humidity;BMP_temperature;BMP_pressure;BME280_temperature;BME280_humidity;BME280_pressure;Samples;Min_cycle;Max_cycle;Signal;HPM_P1;HPM_P2
2021/09/07 00:00:16;;;;;;;17.70;13.90;;;;;;;;;;5090009;28;20094;-72
2021/09/07 00:02:42;;;;;;;22.25;15.00;;;;;;;;;;5089114;28;20149;-71
2021/09/07 00:05:10;;;;;;;20.27;14.48;;;;;;;;;;5088572;28;20456;-72
2021/09/07 00:07:36;;;;;;;19.00;14.27;;;;;;;;;;5087310;28;20044;-72
2021/09/07 00:10:03;;;;;;;20.98;15.40;;;;;;;;;;5090698;28;20491;-72
2021/09/07 00:12:29;;;;;;;17.05;14.10;;;;;;;;;;5088735;28;20048;-72
2021/09/07 00:14:55;;;;;;;19.63;15.45;;;;;;;;;;5089090;28;20051;-72
2021/09/07 00:17:21;;;;;;;18.42;14.75;;;;;;;;;;5089515;28;20182;-72
2021/09/07 00:19:47;;;;;;;18.67;14.50;;;;;;;;;;5087193;28;20525;-71
2021/09/07 00:22:13;;;;;;;16.98;14.23;;;;;;;;;;5089229;28;20097;-72
2021/09/07 00:24:39;;;;;;;18.23;13.93;;;;;;;;;;5072872;28;20527;-72
2021/09/07 00:27:05;;;;;;;23.92;16.70;;;;;;;;;;5087372;28;20556;-72
2021/09/07 00:29:31;;;;;;;17.60;14.65;;;;;;;;;;5090092;28;20054;-72
2021/09/07 00:31:57;;;;;;;20.40;14.93;;;;;;;;;;5084118;28;20086;-72
2021/09/07 00:34:23;;;;;;;20.65;15.48;;;;;;;;;;5088874;28;20395;-72
2021/09/07 00:36:50;;;;;;;21.92;15.25;;;;;;;;;;5088424;28;20512;-72
2021/09/07 00:39:16;;;;;;;22.85;15.10;;;;;;;;;;5089929;28;20169;-72
2021/09/07 00:41:42;;;;;;;24.42;16.17;;;;;;;;;;5070086;28;20105;-72
2021/09/07 00:44:16;;;;;;;19.90;14.88;;;;;;;;;;5087402;28;20473;-72
2021/09/07 00:46:44;;;;;;;20.45;14.95;;;;;;;;;;5086802;28;20040;-72
2021/09/07 00:49:11;;;;;;;19.75;15.30;;;;;;;;;;5089718;28;20039;-72
2021/09/07 00:51:37;;;;;;;23.33;15.90;;;;;;;;;;5087423;28;20040;-72
2021/09/07 00:54:03;;;;;;;20.63;15.68;;;;;;;;;;5087015;28;20059;-72
2021/09/07 00:56:30;;;;;;;23.20;16.33;;;;;;;;;;5088919;28;20040;-72
2021/09/07 00:58:56;;;;;;;23.70;16.42;;;;;;;;;;5089429;28;20048;-72
2021/09/07 01:01:22;;;;;;;19.40;15.73;;;;;;;;;;5088614;28;20627;-72
2021/09/07 01:03:48;;;;;;;21.70;17.33;;;;;;;;;;5087577;28;20044;-72
2021/09/07 01:06:14;;;;;;;27.33;18.08;;;;;;;;;;5088202;28;20036;-72
2021/09/07 01:08:40;;;;;;;18.92;15.90;;;;;;;;;;5089311;28;20036;-72
2021/09/07 01:11:06;;;;;;;24.83;17.20;;;;;;;;;;5085616;28;20062;-72
2021/09/07 01:13:32;;;;;;;23.55;16.90;;;;;;;;;;5087836;28;20119;-72
2021/09/07 01:16:00;;;;;;;23.17;17.45;;;;;;;;;;5087473;28;20040;-72
2021/09/07 01:18:26;;;;;;;20.92;17.17;;;;;;;;;;5088193;28;20056;-72
2021/09/07 01:20:53;;;;;;;24.77;17.75;;;;;;;;;;5088899;28;20048;-72
2021/09/07 01:23:19;;;;;;;23.85;17.70;;;;;;;;;;5097434;28;20171;-71
2021/09/07 01:25:45;;;;;;;21.67;18.38;;;;;;;;;;5085080;28;20052;-71
2021/09/07 01:28:13;;;;;;;21.70;18.52;;;;;;;;;;5086558;28;20051;-72
2021/09/07 01:30:40;;;;;;;24.02;17.83;;;;;;;;;;5086144;28;20044;-72
2021/09/07 01:33:06;;;;;;;23.73;18.80;;;;;;;;;;5087897;28;20131;-72
2021/09/07 01:35:32;;;;;;;22.85;17.98;;;;;;;;;;5087560;28;20048;-72
2021/09/07 01:37:58;;;;;;;21.98;17.23;;;;;;;;;;5087039;28;20044;-72
2021/09/07 01:40:24;;;;;;;29.15;18.48;;;;;;;;;;5088389;28;20102;-72
2021/09/07 01:42:50;;;;;;;25.13;16.75;;;;;;;;;;5084359;28;20040;-72
2021/09/07 01:45:16;;;;;;;21.85;17.13;;;;;;;;;;5086567;28;20036;-72
2021/09/07 01:47:42;;;;;;;23.05;16.88;;;;;;;;;;5083888;28;20048;-72
2021/09/07 01:50:09;;;;;;;24.77;17.35;;;;;;;;;;5087959;28;20399;-72
2021/09/07 01:52:35;;;;;;;27.10;18.73;;;;;;;;;;5087563;28;20075;-72
2021/09/07 01:55:01;;;;;;;22.67;18.02;;;;;;;;;;5091366;28;20059;-72
2021/09/07 01:57:27;;;;;;;22.75;17.20;;;;;;;;;;5091609;28;20125;-72
2021/09/07 01:59:53;;;;;;;21.20;17.08;;;;;;;;;;5089778;28;20160;-72
2021/09/07 02:02:19;;;;;;;24.95;17.95;;;;;;;;;;5091285;28;20051;-72
2021/09/07 02:04:45;;;;;;;24.92;17.90;;;;;;;;;;5089111;28;20512;-72
2021/09/07 02:07:12;;;;;;;24.48;16.50;;;;;;;;;;5089919;28;20145;-72
2021/09/07 02:09:38;;;;;;;20.70;16.52;;;;;;;;;;5100211;28;20048;-72
2021/09/07 02:12:06;;;;;;;23.10;18.08;;;;;;;;;;5090212;28;20398;-72
2021/09/07 02:14:32;;;;;;;21.85;17.42;;;;;;;;;;5088252;28;20181;-73
2021/09/07 02:16:58;;;;;;;26.60;18.83;;;;;;;;;;5090717;28;20048;-72
2021/09/07 02:19:24;;;;;;;23.20;18.48;;;;;;;;;;5091879;28;20076;-72
2021/09/07 02:21:51;;;;;;;23.95;17.75;;;;;;;;;;5089710;28;20040;-72
2021/09/07 02:24:17;;;;;;;25.90;17.77;;;;;;;;;;5096099;28;20048;-72
2021/09/07 02:26:43;;;;;;;25.30;17.48;;;;;;;;;;5088832;28;20051;-71
2021/09/07 02:29:09;;;;;;;26.20;18.02;;;;;;;;;;5074548;28;20135;-71
2021/09/07 02:31:35;;;;;;;20.65;16.70;;;;;;;;;;5087359;28;20036;-72
2021/09/07 02:34:01;;;;;;;19.38;16.10;;;;;;;;;;5080147;28;20049;-72
2021/09/07 02:36:28;;;;;;;21.60;15.73;;;;;;;;;;5090576;28;20079;-72
2021/09/07 02:38:56;;;;;;;19.52;16.05;;;;;;;;;;5091940;28;20044;-72
2021/09/07 02:41:23;;;;;;;19.75;16.05;;;;;;;;;;5091122;28;20127;-71
2021/09/07 02:43:49;;;;;;;20.48;15.98;;;;;;;;;;5090481;28;20388;-72
2021/09/07 02:46:15;;;;;;;24.35;17.15;;;;;;;;;;5091356;28;20048;-71
2021/09/07 02:48:41;;;;;;;21.65;18.20;;;;;;;;;;5054688;28;20106;-72
2021/09/07 02:51:07;;;;;;;21.48;17.50;;;;;;;;;;5095588;28;20059;-71
2021/09/07 02:53:33;;;;;;;20.67;16.50;;;;;;;;;;5074113;28;20333;-72
2021/09/07 02:55:59;;;;;;;23.70;17.15;;;;;;;;;;5072087;28;20046;-72
2021/09/07 02:58:25;;;;;;;21.35;16.60;;;;;;;;;;5091120;28;20083;-72
2021/09/07 03:00:51;;;;;;;24.45;15.90;;;;;;;;;;5081411;28;20056;-72
2021/09/07 03:03:18;;;;;;;22.40;16.45;;;;;;;;;;5073026;28;20093;-72
2021/09/07 03:05:44;;;;;;;21.90;16.75;;;;;;;;;;5074467;28;20124;-72
2021/09/07 03:08:10;;;;;;;22.30;17.08;;;;;;;;;;5090435;28;20399;-72
2021/09/07 03:10:36;;;;;;;22.83;16.08;;;;;;;;;;5095368;28;20090;-71
2021/09/07 03:13:02;;;;;;;20.20;17.00;;;;;;;;;;5090778;28;20036;-71
2021/09/07 03:15:28;;;;;;;20.90;15.95;;;;;;;;;;5071369;28;20093;-71
2021/09/07 03:17:54;;;;;;;25.50;16.25;;;;;;;;;;5089602;28;20063;-72
2021/09/07 03:20:20;;;;;;;19.58;15.25;;;;;;;;;;5088139;28;20052;-71
2021/09/07 03:22:47;;;;;;;18.98;16.88;;;;;;;;;;5096606;28;20071;-72
2021/09/07 03:25:14;;;;;;;24.20;16.02;;;;;;;;;;5089481;28;20066;-71
2021/09/07 03:27:40;;;;;;;21.77;15.77;;;;;;;;;;5090089;28;20067;-72
2021/09/07 03:30:06;;;;;;;21.08;15.75;;;;;;;;;;5090778;28;20097;-71
2021/09/07 03:32:32;;;;;;;21.70;16.38;;;;;;;;;;5090385;28;20561;-72
2021/09/07 03:34:58;;;;;;;23.00;15.65;;;;;;;;;;5089666;28;20044;-72
2021/09/07 03:37:24;;;;;;;23.13;15.75;;;;;;;;;;5090265;28;20048;-71
2021/09/07 03:39:51;;;;;;;23.05;16.42;;;;;;;;;;5087929;28;20108;-72
2021/09/07 03:42:17;;;;;;;21.27;16.25;;;;;;;;;;5090382;28;20051;-71
2021/09/07 03:44:43;;;;;;;19.73;15.70;;;;;;;;;;5087739;28;20040;-72
2021/09/07 03:47:09;;;;;;;22.00;15.90;;;;;;;;;;5088356;28;20047;-71
2021/09/07 03:49:35;;;;;;;21.30;14.82;;;;;;;;;;5087282;28;20461;-72
2021/09/07 03:52:01;;;;;;;23.83;16.15;;;;;;;;;;5089831;28;20044;-72
2021/09/07 03:54:27;;;;;;;20.67;16.42;;;;;;;;;;5087960;28;20044;-72
2021/09/07 03:56:53;;;;;;;17.63;14.73;;;;;;;;;;5088635;28;20044;-72
2021/09/07 03:59:19;;;;;;;22.50;16.50;;;;;;;;;;5089669;28;20274;-72
2021/09/07 04:01:45;;;;;;;18.25;14.43;;;;;;;;;;5089479;28;20048;-72
2021/09/07 04:04:11;;;;;;;21.25;15.98;;;;;;;;;;5089136;28;20047;-71
2021/09/07 04:06:37;;;;;;;21.75;15.55;;;;;;;;;;5090760;28;20047;-72
2021/09/07 04:09:04;;;;;;;22.88;16.27;;;;;;;;;;5086703;28;20047;-71
2021/09/07 04:11:30;;;;;;;21.15;16.90;;;;;;;;;;5088852;28;20043;-71
2021/09/07 04:13:56;;;;;;;22.10;16.80;;;;;;;;;;5088822;28;20088;-71
2021/09/07 04:16:22;;;;;;;26.02;18.08;;;;;;;;;;5090557;28;20535;-71
2021/09/07 04:18:48;;;;;;;24.73;16.55;;;;;;;;;;5088275;28;20060;-72
2021/09/07 04:21:16;;;;;;;23.63;17.23;;;;;;;;;;5091435;28;20102;-72
2021/09/07 04:23:42;;;;;;;25.60;16.98;;;;;;;;;;5090059;28;20123;-71
2021/09/07 04:26:08;;;;;;;22.98;15.98;;;;;;;;;;5089398;28;20380;-72
2021/09/07 04:28:34;;;;;;;22.48;17.02;;;;;;;;;;5090351;28;20044;-71
2021/09/07 04:31:00;;;;;;;27.13;17.95;;;;;;;;;;5089123;28;20044;-71
2021/09/07 04:33:26;;;;;;;23.45;16.92;;;;;;;;;;5088175;28;20396;-72
2021/09/07 04:35:52;;;;;;;22.25;17.00;;;;;;;;;;5087188;28;20056;-72
2021/09/07 04:38:18;;;;;;;24.85;18.13;;;;;;;;;;5090238;28;20048;-72
2021/09/07 04:40:44;;;;;;;23.55;17.38;;;;;;;;;;5078354;28;20051;-72
2021/09/07 04:43:11;;;;;;;24.80;16.75;;;;;;;;;;5086137;28;20119;-71
2021/09/07 04:45:37;;;;;;;22.15;16.45;;;;;;;;;;5081405;28;20047;-72
2021/09/07 04:48:03;;;;;;;25.38;16.90;;;;;;;;;;5087060;28;20475;-72
2021/09/07 04:50:29;;;;;;;32.17;17.58;;;;;;;;;;5085009;28;20047;-72
2021/09/07 04:52:55;;;;;;;19.65;15.82;;;;;;;;;;5084007;28;20120;-72
2021/09/07 04:55:21;;;;;;;21.33;16.30;;;;;;;;;;5082604;28;20050;-72
2021/09/07 04:57:47;;;;;;;21.33;15.82;;;;;;;;;;5082715;28;20057;-73
2021/09/07 05:00:13;;;;;;;21.85;16.55;;;;;;;;;;5080509;28;20080;-73
2021/09/07 05:02:40;;;;;;;27.30;14.77;;;;;;;;;;5083187;28;20040;-73
2021/09/07 05:05:07;;;;;;;20.42;15.32;;;;;;;;;;5083996;28;20503;-73
2021/09/07 05:07:33;;;;;;;24.98;15.40;;;;;;;;;;5080495;28;20040;-72
2021/09/07 05:09:59;;;;;;;23.80;17.13;;;;;;;;;;5087752;28;20043;-73
2021/09/07 05:12:27;;;;;;;22.60;16.60;;;;;;;;;;5083885;28;20045;-74
2021/09/07 05:14:53;;;;;;;21.15;16.38;;;;;;;;;;5083024;28;20052;-73
2021/09/07 05:17:20;;;;;;;21.08;16.27;;;;;;;;;;5084846;28;20105;-72
2021/09/07 05:19:46;;;;;;;21.33;16.70;;;;;;;;;;5082502;28;20040;-72
2021/09/07 05:22:12;;;;;;;21.63;16.25;;;;;;;;;;5107130;27;20102;-73
2021/09/07 05:24:38;;;;;;;22.15;16.45;;;;;;;;;;5081253;28;20052;-73
2021/09/07 05:27:04;;;;;;;20.10;16.42;;;;;;;;;;5074235;28;20055;-73
2021/09/07 05:29:30;;;;;;;21.05;15.70;;;;;;;;;;5086304;28;20044;-73
2021/09/07 05:31:57;;;;;;;24.05;16.90;;;;;;;;;;5089272;28;20109;-74
2021/09/07 05:34:23;;;;;;;23.85;16.85;;;;;;;;;;5084465;28;20043;-73
2021/09/07 05:36:50;;;;;;;22.02;16.05;;;;;;;;;;5087185;28;20510;-72
2021/09/07 05:39:16;;;;;;;20.08;15.80;;;;;;;;;;5087910;28;20050;-73
2021/09/07 05:41:42;;;;;;;20.77;15.63;;;;;;;;;;5097877;28;20137;-72
2021/09/07 05:44:08;;;;;;;23.15;16.80;;;;;;;;;;5077656;28;20032;-72
2021/09/07 05:46:34;;;;;;;21.23;15.77;;;;;;;;;;5080814;28;20055;-74
2021/09/07 05:49:00;;;;;;;21.58;15.60;;;;;;;;;;5083637;28;20091;-72
2021/09/07 05:51:27;;;;;;;18.10;15.10;;;;;;;;;;5085381;28;20044;-72
2021/09/07 05:53:53;;;;;;;26.35;16.50;;;;;;;;;;5086276;28;20105;-72
2021/09/07 05:56:20;;;;;;;25.45;16.83;;;;;;;;;;5084420;28;20071;-72
2021/09/07 05:58:46;;;;;;;19.85;15.15;;;;;;;;;;5068561;28;20036;-73
2021/09/07 06:01:12;;;;;;;22.20;15.32;;;;;;;;;;5083756;28;20551;-72
2021/09/07 06:03:38;;;;;;;19.65;15.32;;;;;;;;;;5086617;28;20357;-72
2021/09/07 06:06:04;;;;;;;20.95;14.38;;;;;;;;;;5084102;28;20105;-72
2021/09/07 06:08:30;;;;;;;21.98;15.55;;;;;;;;;;5083322;28;20063;-72
2021/09/07 06:10:57;;;;;;;19.58;14.20;;;;;;;;;;5086088;28;20050;-72
2021/09/07 06:13:23;;;;;;;20.13;14.98;;;;;;;;;;5087015;28;20036;-72
2021/09/07 06:15:49;;;;;;;20.10;15.00;;;;;;;;;;5078451;28;20044;-72
2021/09/07 06:18:15;;;;;;;19.08;14.45;;;;;;;;;;5084486;28;20455;-72
2021/09/07 06:20:41;;;;;;;26.35;15.75;;;;;;;;;;5088109;28;20441;-72
2021/09/07 06:23:07;;;;;;;23.83;15.85;;;;;;;;;;5085324;28;20036;-72
2021/09/07 06:25:33;;;;;;;23.50;13.90;;;;;;;;;;5080076;28;20043;-71
2021/09/07 06:28:00;;;;;;;19.27;14.32;;;;;;;;;;5088244;28;20040;-70
2021/09/07 06:30:26;;;;;;;22.77;14.38;;;;;;;;;;5086571;28;20032;-70
2021/09/07 06:32:52;;;;;;;24.38;15.68;;;;;;;;;;5084617;28;20131;-70
2021/09/07 06:35:18;;;;;;;24.40;16.25;;;;;;;;;;5086865;28;20040;-71
2021/09/07 06:37:44;;;;;;;22.65;16.33;;;;;;;;;;5086824;28;20043;-70
2021/09/07 06:40:11;;;;;;;19.98;14.63;;;;;;;;;;5088245;28;20046;-71
2021/09/07 06:42:37;;;;;;;19.80;14.93;;;;;;;;;;5086713;28;20043;-71
2021/09/07 06:45:04;;;;;;;23.75;16.58;;;;;;;;;;5090795;28;20395;-71
2021/09/07 06:47:30;;;;;;;21.88;14.52;;;;;;;;;;5086974;28;20036;-71
2021/09/07 06:49:56;;;;;;;17.63;13.48;;;;;;;;;;5086023;28;20055;-71
2021/09/07 06:52:23;;;;;;;18.50;13.85;;;;;;;;;;5085358;28;20104;-70
2021/09/07 06:54:49;;;;;;;17.10;13.52;;;;;;;;;;5087541;28;20044;-70
2021/09/07 06:57:15;;;;;;;23.00;13.90;;;;;;;;;;5087440;28;20130;-71
2021/09/07 06:59:41;;;;;;;16.30;12.27;;;;;;;;;;5080932;28;20044;-71
2021/09/07 07:02:07;;;;;;;;;;;;;;;;;;5091087;28;20043;-71
2021/09/07 07:04:33;;;;;;;19.63;13.32;;;;;;;;;;5078138;28;19931;-70
2021/09/07 07:06:59;;;;;;;15.82;12.40;;;;;;;;;;5083010;28;20044;-71
2021/09/07 07:09:25;;;;;;;;;;;;;;;;;;5071922;28;20090;-71
2021/09/07 07:11:51;;;;;;;20.85;13.10;;;;;;;;;;5088597;28;19959;-71
2021/09/07 07:14:21;;;;;;;17.30;13.25;;;;;;;;;;5089299;28;20559;-71
2021/09/07 07:16:47;;;;;;;;;;;;;;;;;;5087617;28;20044;-71
2021/09/07 07:19:13;;;;;;;15.02;12.48;;;;;;;;;;5118735;27;19916;-73
2021/09/07 07:21:39;;;;;;;16.58;12.38;;;;;;;;;;5081953;28;20127;-73
2021/09/07 07:24:05;;;;;;;17.65;12.85;;;;;;;;;;5070479;28;20047;-72
2021/09/07 07:26:31;;;;;;;15.43;12.85;;;;;;;;;;5081685;28;20032;-71
2021/09/07 07:28:57;;;;;;;15.02;12.88;;;;;;;;;;5081544;28;20745;-72
2021/09/07 07:31:23;;;;;;;15.32;13.30;;;;;;;;;;5085194;28;20471;-73
2021/09/07 07:33:49;;;;;;;16.38;13.65;;;;;;;;;;5080888;28;20441;-72
2021/09/07 07:36:16;;;;;;;15.48;12.88;;;;;;;;;;5081999;28;20436;-72
2021/09/07 07:38:42;;;;;;;17.98;13.30;;;;;;;;;;5083874;28;20429;-72
2021/09/07 07:41:08;;;;;;;15.90;13.73;;;;;;;;;;5083984;28;20434;-72
2021/09/07 07:43:36;;;;;;;18.33;13.80;;;;;;;;;;5088308;28;20899;-72
2021/09/07 07:46:03;;;;;;;15.48;12.75;;;;;;;;;;5088973;28;20424;-72
2021/09/07 07:48:29;;;;;;;15.43;12.65;;;;;;;;;;5084069;28;20863;-72
2021/09/07 07:50:55;;;;;;;13.88;11.85;;;;;;;;;;5086585;28;20422;-72
2021/09/07 07:53:21;;;;;;;17.33;12.30;;;;;;;;;;5114299;27;20425;-72
2021/09/07 07:55:47;;;;;;;15.90;12.60;;;;;;;;;;5079449;28;21016;-72
2021/09/07 07:58:13;;;;;;;16.02;12.25;;;;;;;;;;5085302;28;20578;-73
2021/09/07 08:00:39;;;;;;;14.48;11.82;;;;;;;;;;5084730;28;20422;-72
2021/09/07 08:03:05;;;;;;;13.98;11.93;;;;;;;;;;5081953;28;20546;-73
2021/09/07 08:05:31;;;;;;;16.52;11.30;;;;;;;;;;5082934;28;20418;-72
2021/09/07 08:07:57;;;;;;;14.50;11.10;;;;;;;;;;5082515;28;20429;-72
2021/09/07 08:10:23;;;;;;;16.55;11.20;;;;;;;;;;5087242;28;20451;-71
2021/09/07 08:12:50;;;;;;;15.32;11.93;;;;;;;;;;5115248;27;20461;-72
2021/09/07 08:15:16;;;;;;;14.68;11.20;;;;;;;;;;5081483;28;20423;-72
2021/09/07 08:17:42;;;;;;;13.23;11.68;;;;;;;;;;5080351;28;20479;-72
2021/09/07 08:20:08;;;;;;;14.70;11.32;;;;;;;;;;5080965;28;20430;-72
2021/09/07 08:22:34;;;;;;;13.27;11.25;;;;;;;;;;5080602;28;20425;-72
2021/09/07 08:25:00;;;;;;;13.57;11.33;;;;;;;;;;5082279;28;20556;-72
2021/09/07 08:27:26;;;;;;;14.02;11.05;;;;;;;;;;5096380;28;20425;-72
2021/09/07 08:29:52;;;;;;;13.18;11.15;;;;;;;;;;5083103;28;20433;-72
2021/09/07 08:32:19;;;;;;;12.43;10.70;;;;;;;;;;5082041;28;20530;-72
2021/09/07 08:34:45;;;;;;;11.88;10.55;;;;;;;;;;5082740;28;20421;-72
2021/09/07 08:37:11;;;;;;;12.95;10.88;;;;;;;;;;5084320;28;20605;-73
2021/09/07 08:39:37;;;;;;;13.32;10.55;;;;;;;;;;5073330;28;20586;-72
2021/09/07 08:42:06;;;;;;;12.77;10.87;;;;;;;;;;5082903;28;20920;-72
2021/09/07 08:44:32;;;;;;;12.38;10.73;;;;;;;;;;5073892;28;20502;-72
2021/09/07 08:46:58;;;;;;;16.70;10.85;;;;;;;;;;5083510;28;20890;-73
2021/09/07 08:49:24;;;;;;;13.43;11.48;;;;;;;;;;5053393;28;20438;-72
2021/09/07 08:51:51;;;;;;;13.20;10.90;;;;;;;;;;5079824;28;20426;-72
2021/09/07 08:54:18;;;;;;;13.27;10.32;;;;;;;;;;5075361;28;20762;-73
2021/09/07 08:56:44;;;;;;;13.68;11.10;;;;;;;;;;5077405;28;20424;-73
2021/09/07 08:59:10;;;;;;;14.10;11.82;;;;;;;;;;5078631;28;20887;-73
2021/09/07 09:01:38;;;;;;;13.13;11.73;;;;;;;;;;5078600;28;20487;-72
2021/09/07 09:04:04;;;;;;;13.90;11.52;;;;;;;;;;5080753;28;20436;-73
2021/09/07 09:06:30;;;;;;;13.43;11.30;;;;;;;;;;5085249;28;21190;-73
2021/09/07 09:09:06;;;;;;;12.65;11.35;;;;;;;;;;5085559;28;20429;-73
2021/09/07 09:11:51;;;;;;;13.30;11.70;;;;;;;;;;5077676;28;20422;-72
2021/09/07 09:14:37;;;;;;;13.37;11.70;;;;;;;;;;5081910;28;20519;-73
2021/09/07 09:17:19;;;;;;;15.60;12.13;;;;;;;;;;5078336;28;20426;-73
2021/09/07 09:19:52;;;;;;;12.38;11.18;;;;;;;;;;5080401;28;20473;-73
2021/09/07 09:22:18;;;;;;;13.53;11.63;;;;;;;;;;5081632;28;20920;-72
2021/09/07 09:24:44;;;;;;;15.15;11.65;;;;;;;;;;5083922;28;20930;-72
2021/09/07 09:27:11;;;;;;;15.40;11.07;;;;;;;;;;5082702;28;20139;-73
2021/09/07 09:29:43;;;;;;;15.20;10.88;;;;;;;;;;5084724;28;20119;-73
2021/09/07 09:32:13;;;;;;;16.05;11.05;;;;;;;;;;5082576;28;20032;-73
2021/09/07 09:34:40;;;;;;;14.35;11.18;;;;;;;;;;5081305;28;20146;-74
2021/09/07 09:37:07;;;;;;;14.55;11.10;;;;;;;;;;5062830;28;20727;-72
2021/09/07 09:39:37;;;;;;;15.40;11.35;;;;;;;;;;5078083;28;20060;-72
2021/09/07 09:42:04;;;;;;;15.27;11.35;;;;;;;;;;5077424;28;20482;-73
2021/09/07 09:44:30;;;;;;;12.43;10.45;;;;;;;;;;5080528;28;20040;-72
2021/09/07 09:46:56;;;;;;;14.18;11.88;;;;;;;;;;5076803;28;20476;-72
2021/09/07 09:49:26;;;;;;;17.70;11.38;;;;;;;;;;5080331;28;20051;-72
2021/09/07 09:51:53;;;;;;;17.23;11.52;;;;;;;;;;5082069;28;20087;-71
2021/09/07 09:54:19;;;;;;;15.15;10.57;;;;;;;;;;5079493;28;20093;-72
2021/09/07 09:56:45;;;;;;;15.60;10.63;;;;;;;;;;5079507;28;20465;-72
2021/09/07 09:59:11;;;;;;;14.77;11.73;;;;;;;;;;5080095;28;20052;-73
2021/09/07 10:01:38;;;;;;;14.20;11.18;;;;;;;;;;5079558;28;20059;-73
2021/09/07 10:04:05;;;;;;;13.65;10.93;;;;;;;;;;5079559;28;20262;-73
2021/09/07 10:06:31;;;;;;;16.20;10.70;;;;;;;;;;5079807;28;20510;-72
2021/09/07 10:08:57;;;;;;;12.68;11.18;;;;;;;;;;5079454;28;20047;-73
2021/09/07 10:11:26;;;;;;;14.95;10.82;;;;;;;;;;5080424;28;20052;-73
2021/09/07 10:13:55;;;;;;;13.98;11.10;;;;;;;;;;5077223;28;20082;-73
2021/09/07 10:16:30;;;;;;;13.10;10.82;;;;;;;;;;5080835;28;20059;-74
2021/09/07 10:26:38;;;;;;;13.20;10.82;;;;;;;;;;5089525;28;20184;-73
2021/09/07 10:29:06;;;;;;;18.42;11.70;;;;;;;;;;5085981;28;20048;-73
2021/09/07 10:31:41;;;;;;;12.98;11.38;;;;;;;;;;5080716;28;20071;-73
2021/09/07 10:34:07;;;;;;;14.73;10.43;;;;;;;;;;5082373;28;20081;-72
2021/09/07 10:36:36;;;;;;;13.70;10.95;;;;;;;;;;5092716;28;20072;-73
2021/09/07 10:39:07;;;;;;;15.25;11.43;;;;;;;;;;5082974;28;20051;-71
2021/09/07 10:41:33;;;;;;;15.35;10.88;;;;;;;;;;5081957;28;20044;-71
2021/09/07 10:44:01;;;;;;;12.93;11.10;;;;;;;;;;5089188;28;20059;-72
2021/09/07 10:46:42;;;;;;;15.27;12.43;;;;;;;;;;5087328;28;20468;-71
2021/09/07 10:49:16;;;;;;;21.80;11.57;;;;;;;;;;5078749;28;20052;-71
2021/09/07 10:51:42;;;;;;;;;;;;;;;;;;5074408;28;20052;-71
2021/09/07 10:54:08;;;;;;;14.00;11.02;;;;;;;;;;5082058;28;20290;-71
2021/09/07 10:56:41;;;;;;;13.88;10.75;;;;;;;;;;5092724;28;20075;-71
2021/09/07 10:59:27;;;;;;;16.52;11.65;;;;;;;;;;5083992;28;20036;-71
2021/09/07 11:02:13;;;;;;;25.65;11.63;;;;;;;;;;5080724;28;20036;-71
2021/09/07 11:04:49;;;;;;;62.78;16.02;;;;;;;;;;5079631;28;20403;-70
2021/09/07 11:07:34;;;;;;;18.40;12.05;;;;;;;;;;5084728;28;20139;-70
2021/09/07 11:10:00;;;;;;;15.98;12.35;;;;;;;;;;5089462;28;20044;-71
2021/09/07 11:12:33;;;;;;;14.82;12.35;;;;;;;;;;5086511;28;20139;-72
2021/09/07 11:15:09;;;;;;;14.38;12.00;;;;;;;;;;5090731;28;20067;-73
2021/09/07 11:17:36;;;;;;;16.10;12.00;;;;;;;;;;5088535;28;20044;-73
2021/09/07 11:20:08;;;;;;;16.13;11.90;;;;;;;;;;5084450;28;20067;-72
2021/09/07 11:22:35;;;;;;;17.13;12.73;;;;;;;;;;5088700;28;20044;-72
2021/09/07 11:25:03;;;;;;;15.38;12.93;;;;;;;;;;5086197;28;20040;-72
2021/09/07 11:27:46;;;;;;;15.88;11.68;;;;;;;;;;5087984;28;20036;-72
2021/09/07 11:30:23;;;;;;;15.80;12.65;;;;;;;;;;5089518;28;20054;-72
2021/09/07 11:32:49;;;;;;;13.95;11.68;;;;;;;;;;5079683;28;20047;-72
2021/09/07 11:35:15;;;;;;;17.83;12.50;;;;;;;;;;5081485;28;20487;-73
2021/09/07 11:37:41;;;;;;;17.90;12.00;;;;;;;;;;5116019;27;20080;-73
2021/09/07 11:40:11;;;;;;;14.35;12.45;;;;;;;;;;5090007;28;20036;-72
2021/09/07 11:42:51;;;;;;;18.95;12.15;;;;;;;;;;5090169;28;20036;-72
2021/09/07 11:45:20;;;;;;;16.45;12.65;;;;;;;;;;5091338;28;20514;-72
2021/09/07 11:47:46;;;;;;;17.48;11.35;;;;;;;;;;5080892;28;20039;-72
2021/09/07 11:50:19;;;;;;;13.40;11.73;;;;;;;;;;5094240;28;20054;-72
2021/09/07 11:52:54;;;;;;;13.43;11.93;;;;;;;;;;5095598;28;20075;-72
2021/09/07 11:55:40;;;;;;;16.38;12.57;;;;;;;;;;5090151;28;20044;-72
2021/09/07 11:58:07;;;;;;;18.40;11.68;;;;;;;;;;5087442;28;20492;-72
2021/09/07 12:00:33;;;;;;;15.57;11.65;;;;;;;;;;5088574;28;20048;-73
2021/09/07 12:03:09;;;;;;;15.45;12.13;;;;;;;;;;5079212;28;20037;-73
2021/09/07 12:05:53;;;;;;;17.55;13.27;;;;;;;;;;5074923;28;20074;-73
2021/09/07 12:08:19;;;;;;;;;;;;;;;;;;5071650;28;20051;-72
2021/09/07 12:10:55;;;;;;;18.85;13.23;;;;;;;;;;5081887;28;19928;-72
2021/09/07 12:13:21;;;;;;;17.83;11.95;;;;;;;;;;5082280;28;20131;-72
2021/09/07 12:15:48;;;;;;;16.13;13.07;;;;;;;;;;5078450;28;20043;-73
2021/09/07 12:18:31;;;;;;;15.80;11.70;;;;;;;;;;5087828;28;20441;-73
2021/09/07 12:21:08;;;;;;;19.40;13.27;;;;;;;;;;5085392;28;20044;-72
2021/09/07 12:23:34;;;;;;;17.77;12.98;;;;;;;;;;5087512;28;20032;-72
2021/09/07 12:26:02;;;;;;;14.93;12.43;;;;;;;;;;5096153;28;20394;-73
2021/09/07 12:28:28;;;;;;;15.38;12.07;;;;;;;;;;5085697;28;20044;-72
2021/09/07 12:31:13;;;;;;;15.63;11.80;;;;;;;;;;5075441;28;20465;-72
2021/09/07 12:33:40;;;;;;;17.30;12.88;;;;;;;;;;5076837;28;20115;-72
2021/09/07 12:36:06;;;;;;;20.02;13.13;;;;;;;;;;5085370;28;20153;-72
2021/09/07 12:38:33;;;;;;;20.58;13.73;;;;;;;;;;5084836;28;20047;-72
2021/09/07 12:41:01;;;;;;;17.60;14.05;;;;;;;;;;5085978;28;20383;-72
2021/09/07 12:43:28;;;;;;;19.90;13.82;;;;;;;;;;5086455;28;20444;-72
2021/09/07 12:46:02;;;;;;;18.73;14.73;;;;;;;;;;5083712;28;20044;-70
2021/09/07 12:48:29;;;;;;;15.85;13.02;;;;;;;;;;5078440;28;20387;-72
2021/09/07 12:50:57;;;;;;;19.02;13.57;;;;;;;;;;5080968;28;20480;-76
2021/09/07 12:53:25;;;;;;;17.05;13.02;;;;;;;;;;5069375;28;20428;-72
2021/09/07 12:55:52;;;;;;;17.60;11.85;;;;;;;;;;5084460;28;20115;-72
2021/09/07 12:58:18;;;;;;;15.05;11.85;;;;;;;;;;5079679;28;20071;-72
2021/09/07 13:00:44;;;;;;;18.40;11.40;;;;;;;;;;5090119;28;20043;-72
2021/09/07 13:03:12;;;;;;;15.13;11.40;;;;;;;;;;5079767;28;20036;-72
2021/09/07 13:05:39;;;;;;;14.82;11.38;;;;;;;;;;5087600;28;20507;-72
2021/09/07 13:08:06;;;;;;;15.68;12.75;;;;;;;;;;5084985;28;20048;-72
2021/09/07 13:10:32;;;;;;;15.63;11.98;;;;;;;;;;5086376;28;20518;-71
2021/09/07 13:12:58;;;;;;;15.95;12.20;;;;;;;;;;5086351;28;20040;-73
2021/09/07 13:15:24;;;;;;;18.30;12.73;;;;;;;;;;5082789;28;20055;-72
2021/09/07 13:17:50;;;;;;;19.17;13.77;;;;;;;;;;5085211;28;20056;-73
2021/09/07 13:20:16;;;;;;;15.65;12.48;;;;;;;;;;5085817;28;20086;-72
2021/09/07 13:22:42;;;;;;;17.58;12.73;;;;;;;;;;5085958;28;20048;-71
2021/09/07 13:25:08;;;;;;;15.73;13.20;;;;;;;;;;5079996;28;20037;-71
2021/09/07 13:27:34;;;;;;;17.67;13.65;;;;;;;;;;5084755;28;20526;-70
2021/09/07 13:30:01;;;;;;;15.15;12.73;;;;;;;;;;5082919;28;20083;-70
2021/09/07 13:32:27;;;;;;;21.02;13.02;;;;;;;;;;5084575;28;20044;-70
2021/09/07 13:34:53;;;;;;;17.08;12.60;;;;;;;;;;5081956;28;20089;-71
2021/09/07 13:37:19;;;;;;;19.27;12.93;;;;;;;;;;5086043;28;20075;-70
2021/09/07 13:39:45;;;;;;;15.13;12.40;;;;;;;;;;5075386;28;20093;-70
2021/09/07 13:42:11;;;;;;;15.98;12.40;;;;;;;;;;5098062;28;20044;-73
2021/09/07 13:44:37;;;;;;;13.30;11.50;;;;;;;;;;5086231;28;20044;-74
2021/09/07 13:47:03;;;;;;;16.23;12.35;;;;;;;;;;5083139;28;20036;-74
2021/09/07 13:49:29;;;;;;;18.77;12.15;;;;;;;;;;5086570;28;20051;-73
2021/09/07 13:51:55;;;;;;;14.88;12.20;;;;;;;;;;5085688;28;20044;-73
2021/09/07 13:54:22;;;;;;;15.55;12.70;;;;;;;;;;5085446;28;20040;-73
2021/09/07 13:56:48;;;;;;;18.00;12.20;;;;;;;;;;5083238;28;20047;-73
2021/09/07 13:59:15;;;;;;;20.13;13.20;;;;;;;;;;5086086;28;20557;-73
2021/09/07 14:01:41;;;;;;;16.75;12.45;;;;;;;;;;5083706;28;20036;-73
2021/09/07 14:04:07;;;;;;;14.38;12.63;;;;;;;;;;5087017;28;20040;-73
2021/09/07 14:06:33;;;;;;;16.00;13.32;;;;;;;;;;5085770;28;20051;-74
2021/09/07 14:08:59;;;;;;;15.95;13.80;;;;;;;;;;5082367;28;20032;-72
2021/09/07 14:11:25;;;;;;;19.02;13.30;;;;;;;;;;5076183;28;20139;-72
2021/09/07 14:13:51;;;;;;;18.45;12.90;;;;;;;;;;5084170;28;20044;-72
2021/09/07 14:16:17;;;;;;;17.10;11.30;;;;;;;;;;5078775;28;20478;-72
2021/09/07 14:18:43;;;;;;;17.55;12.45;;;;;;;;;;5084996;28;20055;-72
2021/09/07 14:21:11;;;;;;;15.93;11.13;;;;;;;;;;5078573;28;20101;-72
2021/09/07 14:23:37;;;;;;;16.48;11.77;;;;;;;;;;5082206;28;20044;-72
2021/09/07 14:26:05;;;;;;;15.30;12.82;;;;;;;;;;5071953;28;20091;-72